createdAt,value
2022-08-20T00:01:09.522Z,4.90
2022-08-20T00:03:41.326Z,6.07
2022-08-20T00:06:19.696Z,3.88
2022-08-20T00:08:47.582Z,3.80
2022-08-20T00:11:20.479Z,7.38
2022-08-20T00:13:55.823Z,4.53
2022-08-20T00:16:26.704Z,5.45
2022-08-20T00:18:54.209Z,4.38
2022-08-20T00:21:21.631Z,7.75
2022-08-20T00:23:52.324Z,6.00
2022-08-20T00:26:20.871Z,9.85
2022-08-20T00:28:47.853Z,3.00
2022-08-20T00:31:19.463Z,6.07
2022-08-20T00:33:47.441Z,2.97
2022-08-20T00:36:17.400Z,4.88
2022-08-20T00:38:46.499Z,4.43
2022-08-20T00:41:22.166Z,5.88
2022-08-20T00:44:04.851Z,6.15
2022-08-20T00:46:33.095Z,5.35
2022-08-20T00:49:03.578Z,5.65
2022-08-20T00:51:44.331Z,3.25
2022-08-20T00:54:25.515Z,6.35
2022-08-20T00:57:03.569Z,5.55
2022-08-20T00:59:34.063Z,4.20
2022-08-20T01:02:02.453Z,4.25
2022-08-20T01:04:34.311Z,5.70
2022-08-20T01:07:05.191Z,3.65
2022-08-20T01:09:58.194Z,7.47
2022-08-20T01:12:20.435Z,6.07
2022-08-20T01:14:55.927Z,11.32
2022-08-20T01:17:25.938Z,4.50
2022-08-20T01:20:08.644Z,9.15
2022-08-20T01:23:26.843Z,3.53
2022-08-20T01:26:20.062Z,4.72
2022-08-20T01:28:54.335Z,5.63
2022-08-20T01:31:29.689Z,8.80
2022-08-20T01:33:59.292Z,3.78
2022-08-20T01:36:37.027Z,4.10
2022-08-20T01:39:08.259Z,7.55
2022-08-20T01:42:08.738Z,4.15
2022-08-20T01:44:39.231Z,6.28
2022-08-20T01:47:21.259Z,6.97
2022-08-20T01:49:55.967Z,4.90
2022-08-20T01:52:33.867Z,5.78
2022-08-20T01:55:01.467Z,5.18
2022-08-20T01:57:29.107Z,5.63
2022-08-20T01:59:56.288Z,6.25
2022-08-20T02:02:24.284Z,4.18
2022-08-20T02:04:51.047Z,5.05
2022-08-20T02:07:22.177Z,6.60
2022-08-20T02:09:52.827Z,3.78
2022-08-20T02:12:19.552Z,5.75
2022-08-20T02:14:53.514Z,3.60
2022-08-20T02:17:23.091Z,3.55
2022-08-20T02:20:04.955Z,4.68
2022-08-20T02:22:50.546Z,4.55
2022-08-20T02:25:23.201Z,3.67
2022-08-20T02:27:52.763Z,3.60
2022-08-20T02:30:28.678Z,5.22
2022-08-20T02:32:57.742Z,3.42
2022-08-20T02:35:25.347Z,5.65
2022-08-20T02:37:53.848Z,4.10
2022-08-20T02:40:27.334Z,6.00
2022-08-20T02:42:59.339Z,5.57
2022-08-20T02:45:26.504Z,3.97
2022-08-20T02:47:54.088Z,6.82
2022-08-20T02:50:23.829Z,8.20
2022-08-20T02:52:51.963Z,5.20
2022-08-20T02:55:28.077Z,4.90
2022-08-20T02:58:00.387Z,4.93
2022-08-20T03:00:38.144Z,4.03
2022-08-20T03:03:08.214Z,5.55
2022-08-20T03:05:36.215Z,4.47
2022-08-20T03:08:07.155Z,4.60
2022-08-20T03:10:36.416Z,5.18
2022-08-20T03:13:05.456Z,7.63
2022-08-20T03:15:33.867Z,6.88
2022-08-20T03:18:00.950Z,5.28
2022-08-20T03:20:28.711Z,4.97
2022-08-20T03:22:56.440Z,5.55
2022-08-20T03:25:24.212Z,5.47
2022-08-20T03:27:54.329Z,6.93
2022-08-20T03:30:24.789Z,6.68
2022-08-20T03:32:52.110Z,11.10
2022-08-20T03:35:22.470Z,11.25
2022-08-20T03:37:49.975Z,9.02
2022-08-20T03:40:21.770Z,8.95
2022-08-20T03:42:48.430Z,10.20
2022-08-20T03:45:20.252Z,7.45
2022-08-20T03:47:48.715Z,7.43
2022-08-20T03:50:23.489Z,10.38
2022-08-20T03:52:54.763Z,7.20
2022-08-20T03:55:22.967Z,7.00
2022-08-20T03:57:54.799Z,7.15
2022-08-20T04:00:28.718Z,7.60
2022-08-20T04:02:57.034Z,6.63
2022-08-20T04:05:25.145Z,8.18
2022-08-20T04:07:57.884Z,8.00
2022-08-20T04:10:30.233Z,7.30
2022-08-20T04:12:56.913Z,6.75
2022-08-20T04:15:24.471Z,10.77
2022-08-20T04:17:52.621Z,7.78
2022-08-20T04:20:23.768Z,7.95
2022-08-20T04:22:59.358Z,7.28
2022-08-20T04:25:29.576Z,8.70
2022-08-20T04:27:58.488Z,7.82
2022-08-20T04:30:26.241Z,8.43
2022-08-20T04:32:53.198Z,8.52
2022-08-20T04:35:23.071Z,8.02
2022-08-20T04:37:50.311Z,8.45
2022-08-20T04:40:37.686Z,9.90
2022-08-20T04:43:05.318Z,10.10
2022-08-20T04:45:33.610Z,10.15
2022-08-20T04:48:05.548Z,11.65
2022-08-20T04:50:35.894Z,11.20
2022-08-20T04:53:09.152Z,11.40
2022-08-20T04:55:41.434Z,10.70
2022-08-20T04:58:20.730Z,9.07
2022-08-20T05:00:55.274Z,9.45
2022-08-20T05:03:23.599Z,10.18
2022-08-20T05:05:52.078Z,12.38
2022-08-20T05:08:22.982Z,9.98
2022-08-20T05:10:50.642Z,7.95
2022-08-20T05:13:26.753Z,8.18
2022-08-20T05:15:55.995Z,9.13
2022-08-20T05:18:26.269Z,7.60
2022-08-20T05:20:54.387Z,8.05
2022-08-20T05:23:21.311Z,7.53
2022-08-20T05:25:51.430Z,9.38
2022-08-20T05:28:25.309Z,7.90
2022-08-20T05:30:53.130Z,7.57
2022-08-20T05:33:22.510Z,8.35
2022-08-20T05:35:52.706Z,7.35
2022-08-20T05:38:27.195Z,7.65
2022-08-20T05:40:54.002Z,7.88
2022-08-20T05:43:21.379Z,8.80
2022-08-20T05:45:56.584Z,8.57
2022-08-20T05:48:29.947Z,8.98
2022-08-20T05:50:56.798Z,9.27
2022-08-20T05:53:25.062Z,8.93
2022-08-20T05:55:53.367Z,9.10
2022-08-20T05:58:25.089Z,7.28
2022-08-20T06:00:53.580Z,7.30
2022-08-20T06:03:40.019Z,7.72
2022-08-20T06:06:17.853Z,8.02
2022-08-20T06:08:55.004Z,7.30
2022-08-20T06:11:22.927Z,6.50
2022-08-20T06:13:49.559Z,8.38
2022-08-20T06:16:16.242Z,6.38
2022-08-20T06:18:43.838Z,6.88
2022-08-20T06:21:10.470Z,6.32
2022-08-20T06:23:58.108Z,7.10
2022-08-20T06:26:28.942Z,6.68
2022-08-20T06:29:01.270Z,6.47
2022-08-20T06:31:28.448Z,5.75
2022-08-20T06:33:55.942Z,7.30
2022-08-20T06:36:22.862Z,5.00
2022-08-20T06:38:49.508Z,4.32
2022-08-20T06:41:17.178Z,5.07
2022-08-20T06:43:43.815Z,5.80
2022-08-20T06:46:10.719Z,7.60
2022-08-20T06:48:38.054Z,4.78
2022-08-20T06:51:06.568Z,4.05
2022-08-20T06:53:33.361Z,4.30
2022-08-20T06:56:00.126Z,4.65
2022-08-20T06:58:36.774Z,4.15
2022-08-20T07:01:11.667Z,4.10
2022-08-20T07:03:55.349Z,4.60
2022-08-20T07:06:25.374Z,3.95
2022-08-20T07:08:53.292Z,3.45
2022-08-20T07:11:24.929Z,3.53
2022-08-20T07:13:56.415Z,3.28
2022-08-20T07:16:23.074Z,3.53
2022-08-20T07:18:49.738Z,2.63
2022-08-20T07:21:17.305Z,3.30
2022-08-20T07:23:44.347Z,3.58
2022-08-20T07:26:11.210Z,3.13
2022-08-20T07:28:37.900Z,3.10
2022-08-20T07:31:23.336Z,3.05
2022-08-20T07:33:50.536Z,2.97
2022-08-20T07:36:18.127Z,3.22
2022-08-20T07:38:50.819Z,2.85
2022-08-20T07:41:17.721Z,4.50
2022-08-20T07:43:45.703Z,2.70
2022-08-20T07:46:15.629Z,3.47
2022-08-20T07:48:46.809Z,3.20
2022-08-20T07:51:17.714Z,7.15
2022-08-20T07:53:46.685Z,3.58
2022-08-20T07:56:19.890Z,4.53
2022-08-20T07:58:52.122Z,4.45
2022-08-20T08:01:24.343Z,4.80
2022-08-20T08:03:51.467Z,3.03
2022-08-20T08:06:28.574Z,4.65
2022-08-20T08:09:03.461Z,4.50
2022-08-20T08:11:33.635Z,7.90
2022-08-20T08:14:01.159Z,5.18
2022-08-20T08:16:28.739Z,3.15
2022-08-20T08:18:56.740Z,2.40
2022-08-20T08:21:24.780Z,2.80
2022-08-20T08:23:53.200Z,4.07
2022-08-20T08:26:20.444Z,2.83
2022-08-20T08:28:47.303Z,2.25
2022-08-20T08:31:15.363Z,2.33
2022-08-20T08:33:42.573Z,2.05
2022-08-20T08:36:15.193Z,3.60
2022-08-20T08:38:44.895Z,4.50
2022-08-20T08:41:31.707Z,2.72
2022-08-20T08:44:27.165Z,2.70
2022-08-20T08:47:27.205Z,3.58
2022-08-20T08:49:54.197Z,2.88
2022-08-20T08:52:26.661Z,2.92
2022-08-20T08:54:59.262Z,2.55
2022-08-20T08:57:27.074Z,2.70
2022-08-20T09:00:04.082Z,3.45
2022-08-20T09:02:33.862Z,2.17
2022-08-20T09:05:05.015Z,2.92
2022-08-20T09:07:33.472Z,2.50
2022-08-20T09:10:02.254Z,2.45
2022-08-20T09:12:29.029Z,2.22
2022-08-20T09:14:56.062Z,3.38
2022-08-20T09:17:24.951Z,5.75
2022-08-20T09:19:52.243Z,2.97
2022-08-20T09:22:23.132Z,2.55
2022-08-20T09:24:50.454Z,2.80
2022-08-20T09:27:18.065Z,1.90
2022-08-20T09:29:45.038Z,2.00
2022-08-20T09:32:16.893Z,2.33
2022-08-20T09:34:51.753Z,1.30
2022-08-20T09:37:19.313Z,1.67
2022-08-20T09:39:47.283Z,2.40
2022-08-20T09:42:21.504Z,2.30
2022-08-20T09:44:48.871Z,2.85
2022-08-20T09:47:17.200Z,3.05
2022-08-20T09:49:45.508Z,3.42
2022-08-20T09:52:26.508Z,2.80
2022-08-20T09:54:58.829Z,2.83
2022-08-20T09:57:27.055Z,2.97
2022-08-20T09:59:58.996Z,2.67
2022-08-20T10:02:26.634Z,2.20
2022-08-20T10:04:53.553Z,1.85
2022-08-20T10:07:20.402Z,2.10
2022-08-20T10:09:47.091Z,2.13
2022-08-20T10:12:13.969Z,1.63
2022-08-20T10:14:40.636Z,1.60
2022-08-20T10:17:07.381Z,1.88
2022-08-20T10:19:34.283Z,1.73
2022-08-20T10:22:01.308Z,1.50
2022-08-20T10:24:28.859Z,1.50
2022-08-20T10:26:59.134Z,4.47
2022-08-20T10:29:28.311Z,3.05
2022-08-20T10:31:59.054Z,3.17
2022-08-20T10:34:25.850Z,2.05
2022-08-20T10:36:52.739Z,1.80
2022-08-20T10:39:19.510Z,1.73
2022-08-20T10:41:46.161Z,1.48
2022-08-20T10:44:12.836Z,1.98
2022-08-20T10:46:39.564Z,1.50
2022-08-20T10:49:06.360Z,1.60
2022-08-20T10:51:33.159Z,1.75
2022-08-20T10:54:00.298Z,1.52
2022-08-20T10:56:26.947Z,1.70
2022-08-20T10:58:53.669Z,2.25
2022-08-20T11:01:31.375Z,2.28
2022-08-20T11:03:59.885Z,1.55
2022-08-20T11:06:26.560Z,2.00
2022-08-20T11:08:53.269Z,1.42
2022-08-20T11:11:23.636Z,1.92
2022-08-20T11:13:50.281Z,3.22
2022-08-20T11:16:16.970Z,1.88
2022-08-20T11:18:46.894Z,3.10
2022-08-20T11:21:14.747Z,1.35
2022-08-20T11:23:41.449Z,1.63
2022-08-20T11:26:08.532Z,1.50
2022-08-20T11:28:35.281Z,1.80
2022-08-20T11:31:02.045Z,1.67
2022-08-20T11:33:28.850Z,1.75
2022-08-20T11:35:55.675Z,1.15
2022-08-20T11:38:22.510Z,1.27
2022-08-20T11:40:49.150Z,2.88
2022-08-20T11:43:17.532Z,2.58
2022-08-20T11:45:48.382Z,1.98
2022-08-20T11:48:16.738Z,0.95
2022-08-20T11:50:43.814Z,1.98
2022-08-20T11:53:10.690Z,2.00
2022-08-20T11:55:38.757Z,1.50
2022-08-20T11:58:06.312Z,1.10
2022-08-20T12:00:34.429Z,1.42
2022-08-20T12:03:04.671Z,2.17
2022-08-20T12:05:31.778Z,1.45
2022-08-20T12:08:01.354Z,1.70
2022-08-20T12:10:29.911Z,1.20
2022-08-20T12:12:56.853Z,1.17
2022-08-20T12:15:25.121Z,2.38
2022-08-20T12:17:51.901Z,1.33
2022-08-20T12:20:23.059Z,0.80
2022-08-20T12:22:49.970Z,0.80
2022-08-20T12:25:16.760Z,1.50
2022-08-20T12:27:43.398Z,0.80
2022-08-20T12:30:19.740Z,4.05
2022-08-20T12:32:46.836Z,2.05
2022-08-20T12:35:16.193Z,1.10
2022-08-20T12:37:44.985Z,1.13
2022-08-20T12:40:24.437Z,1.30
2022-08-20T12:43:01.642Z,1.00
2022-08-20T12:45:29.499Z,2.35
2022-08-20T12:48:07.201Z,3.13
2022-08-20T12:50:35.442Z,0.90
2022-08-20T12:53:03.571Z,1.73
2022-08-20T12:55:33.444Z,1.05
2022-08-20T12:58:03.322Z,0.70
2022-08-20T13:00:36.093Z,2.00
2022-08-20T13:03:05.813Z,0.75
2022-08-20T13:05:34.264Z,1.35
2022-08-20T13:08:00.964Z,2.03
2022-08-20T13:10:33.473Z,4.13
2022-08-20T13:13:03.842Z,3.97
2022-08-20T13:15:32.319Z,1.23
2022-08-20T13:18:03.307Z,1.00
2022-08-20T13:20:34.041Z,1.88
2022-08-20T13:23:03.140Z,1.33
2022-08-20T13:25:30.044Z,1.70
2022-08-20T13:27:59.517Z,1.95
2022-08-20T13:30:26.768Z,1.60
2022-08-20T13:32:53.705Z,1.23
2022-08-20T13:35:20.928Z,8.57
2022-08-20T13:37:48.833Z,3.22
2022-08-20T13:40:16.694Z,1.92
2022-08-20T13:42:43.512Z,4.40
2022-08-20T13:45:10.862Z,2.35
2022-08-20T13:47:39.600Z,2.50
2022-08-20T13:50:17.793Z,2.15
2022-08-20T13:52:45.940Z,2.20
2022-08-20T13:55:17.790Z,1.63
2022-08-20T13:57:46.073Z,1.38
2022-08-20T14:00:19.094Z,3.72
2022-08-20T14:02:46.277Z,3.83
2022-08-20T14:05:18.416Z,4.00
2022-08-20T14:07:47.465Z,4.57
2022-08-20T14:10:26.175Z,1.83
2022-08-20T14:12:53.136Z,2.85
2022-08-20T14:15:20.119Z,1.40
2022-08-20T14:17:57.286Z,2.08
2022-08-20T14:20:29.113Z,8.82
2022-08-20T14:22:56.978Z,3.25
2022-08-20T14:25:25.789Z,2.63
2022-08-20T14:27:54.445Z,3.55
2022-08-20T14:30:29.858Z,2.15
2022-08-20T14:32:57.093Z,1.48
2022-08-20T14:35:24.349Z,2.53
2022-08-20T14:37:55.314Z,2.35
2022-08-20T14:40:25.929Z,1.30
2022-08-20T14:42:53.433Z,1.58
2022-08-20T14:45:21.775Z,1.45
2022-08-20T14:47:57.067Z,1.50
2022-08-20T14:50:29.890Z,3.78
2022-08-20T14:52:58.029Z,1.52
2022-08-20T14:55:31.586Z,3.85
2022-08-20T14:57:58.738Z,2.42
2022-08-20T15:00:29.654Z,3.53
2022-08-20T15:02:56.970Z,3.30
2022-08-20T15:05:24.078Z,3.05
2022-08-20T15:07:54.114Z,1.75
2022-08-20T15:10:31.462Z,5.18
2022-08-20T15:13:02.525Z,3.00
2022-08-20T15:15:29.748Z,4.45
2022-08-20T15:18:03.378Z,2.85
2022-08-20T15:20:34.223Z,1.67
2022-08-20T15:23:01.578Z,2.00
2022-08-20T15:25:36.083Z,4.50
2022-08-20T15:28:08.572Z,3.40
2022-08-20T15:30:37.586Z,3.50
2022-08-20T15:33:04.414Z,2.08
2022-08-20T15:35:31.161Z,1.60
2022-08-20T15:37:59.267Z,2.65
2022-08-20T15:40:30.518Z,2.78
2022-08-20T15:42:59.270Z,2.00
2022-08-20T15:45:26.333Z,2.30
2022-08-20T15:48:01.146Z,2.20
2022-08-20T15:51:02.909Z,2.40
2022-08-20T15:53:43.197Z,2.53
2022-08-20T15:56:19.954Z,4.28
2022-08-20T15:59:21.886Z,4.15
2022-08-20T16:02:12.655Z,2.30
2022-08-20T16:05:08.471Z,2.22
2022-08-20T16:07:41.203Z,3.90
2022-08-20T16:10:54.293Z,2.35
2022-08-20T16:13:37.519Z,5.18
2022-08-20T16:16:08.436Z,4.53
2022-08-20T16:18:37.938Z,2.72
2022-08-20T16:21:15.473Z,12.25
2022-08-20T16:23:44.201Z,3.67
2022-08-20T16:26:53.166Z,4.63
2022-08-20T16:29:27.690Z,6.75
2022-08-20T16:32:10.989Z,2.75
2022-08-20T16:35:14.938Z,5.65
2022-08-20T16:37:59.832Z,2.50
2022-08-20T16:40:34.790Z,2.70
2022-08-20T16:43:06.686Z,4.97
2022-08-20T16:45:42.493Z,2.83
2022-08-20T16:48:12.448Z,3.70
2022-08-20T16:50:43.579Z,3.33
2022-08-20T16:53:19.419Z,3.30
2022-08-20T16:55:46.663Z,1.63
2022-08-20T16:58:13.648Z,1.83
2022-08-20T17:00:45.420Z,2.20
2022-08-20T17:03:31.728Z,3.47
2022-08-20T17:06:31.533Z,3.33
2022-08-20T17:08:59.962Z,2.38
2022-08-20T17:11:32.529Z,4.15
2022-08-20T17:14:25.565Z,3.50
2022-08-20T17:16:52.826Z,3.60
2022-08-20T17:19:30.238Z,3.05
2022-08-20T17:22:10.286Z,1.95
2022-08-20T17:24:38.452Z,2.65
2022-08-20T17:27:28.656Z,2.38
2022-08-20T17:30:08.473Z,1.90
2022-08-20T17:32:35.300Z,2.72
2022-08-20T17:35:04.420Z,7.03
2022-08-20T17:37:37.432Z,4.88
2022-08-20T17:40:28.775Z,3.78
2022-08-20T17:43:02.531Z,4.30
2022-08-20T17:45:45.735Z,5.20
2022-08-20T17:48:19.333Z,3.38
2022-08-20T17:50:46.073Z,5.68
2022-08-20T17:53:27.501Z,3.33
2022-08-20T17:56:08.759Z,4.72
2022-08-20T17:58:55.081Z,3.20
2022-08-20T18:01:23.988Z,4.13
2022-08-20T18:03:52.864Z,3.88
2022-08-20T18:06:54.275Z,5.30
2022-08-20T18:09:36.828Z,5.45
2022-08-20T18:12:34.634Z,4.13
2022-08-20T18:15:24.643Z,4.05
2022-08-20T18:18:19.487Z,7.97
2022-08-20T18:21:26.379Z,6.40
2022-08-20T18:24:00.616Z,4.28
2022-08-20T18:26:42.132Z,4.97
2022-08-20T18:29:14.905Z,6.30
2022-08-20T18:31:59.018Z,7.70
2022-08-20T18:34:28.609Z,8.00
2022-08-20T18:37:07.673Z,5.90
2022-08-20T18:39:39.439Z,9.23
2022-08-20T18:42:22.826Z,5.18
2022-08-20T18:44:53.075Z,5.55
2022-08-20T18:47:45.051Z,8.70
2022-08-20T18:50:41.324Z,5.35
2022-08-20T18:53:24.931Z,5.80
2022-08-20T18:56:07.709Z,4.43
2022-08-20T18:59:07.309Z,6.45
2022-08-20T19:01:37.106Z,8.60
2022-08-20T19:04:24.785Z,8.48
2022-08-20T19:07:03.669Z,8.38
2022-08-20T19:09:57.977Z,6.43
2022-08-20T19:12:56.920Z,6.72
2022-08-20T19:15:26.429Z,6.18
2022-08-20T19:18:07.161Z,6.45
2022-08-20T19:20:38.969Z,6.13
2022-08-20T19:23:14.300Z,9.73
2022-08-20T19:25:56.609Z,5.15
2022-08-20T19:28:32.435Z,4.15
2022-08-20T19:31:32.562Z,11.05
2022-08-20T19:34:04.101Z,7.60
2022-08-20T19:37:02.586Z,6.20
2022-08-20T19:39:51.538Z,6.65
2022-08-20T19:42:42.888Z,4.85
2022-08-20T19:45:22.613Z,5.88
2022-08-20T19:48:31.437Z,6.38
2022-08-20T19:51:30.590Z,7.10
2022-08-20T19:53:57.670Z,8.23
2022-08-20T19:56:27.271Z,5.68
2022-08-20T19:59:10.296Z,6.13
2022-08-20T20:01:37.609Z,4.75
2022-08-20T20:04:15.343Z,7.15
2022-08-20T20:06:48.035Z,7.75
2022-08-20T20:09:19.945Z,6.00
2022-08-20T20:11:54.122Z,6.38
2022-08-20T20:14:25.894Z,5.95
2022-08-20T20:16:53.103Z,4.80
2022-08-20T20:19:28.075Z,6.05
2022-08-20T20:22:08.528Z,9.60
2022-08-20T20:24:58.551Z,4.38
2022-08-20T20:27:27.248Z,8.07
2022-08-20T20:30:09.334Z,7.35
2022-08-20T20:32:49.068Z,6.78
2022-08-20T20:35:34.799Z,7.05
2022-08-20T20:38:09.645Z,7.35
2022-08-20T20:40:51.955Z,6.28
2022-08-20T20:43:29.038Z,6.32
2022-08-20T20:46:23.560Z,5.22
2022-08-20T20:49:12.775Z,6.68
2022-08-20T20:51:53.042Z,8.60
2022-08-20T20:54:40.525Z,9.60
2022-08-20T20:57:23.909Z,6.47
2022-08-20T21:00:17.369Z,6.53
2022-08-20T21:02:45.090Z,6.78
2022-08-20T21:05:14.510Z,8.55
2022-08-20T21:07:58.087Z,7.45
2022-08-20T21:10:30.238Z,8.80
2022-08-20T21:12:59.423Z,7.13
2022-08-20T21:15:27.044Z,6.10
2022-08-20T21:17:54.755Z,12.50
2022-08-20T21:20:22.429Z,6.68
2022-08-20T21:22:49.186Z,7.90
2022-08-20T21:25:18.495Z,6.50
2022-08-20T21:27:49.215Z,6.72
2022-08-20T21:30:17.718Z,6.65
2022-08-20T21:32:44.461Z,6.63
2022-08-20T21:35:11.579Z,5.50
2022-08-20T21:37:38.650Z,8.85
2022-08-20T21:40:08.814Z,6.57
2022-08-20T21:42:37.650Z,7.35
2022-08-20T21:45:08.170Z,5.28
2022-08-20T21:47:35.698Z,6.30
2022-08-20T21:50:03.152Z,8.30
2022-08-20T21:52:30.066Z,5.88
2022-08-20T21:54:56.698Z,7.63
2022-08-20T21:57:28.038Z,9.77
2022-08-20T21:59:57.131Z,8.02
2022-08-20T22:02:25.220Z,10.82
2022-08-20T22:04:53.741Z,7.20
2022-08-20T22:07:21.226Z,13.35
2022-08-20T22:09:47.911Z,6.97
2022-08-20T22:12:20.686Z,6.45
2022-08-20T22:14:47.467Z,8.85
2022-08-20T22:17:17.918Z,9.82
2022-08-20T22:19:44.742Z,7.20
2022-08-20T22:22:13.275Z,10.38
2022-08-20T22:24:39.984Z,8.93
2022-08-20T22:27:07.182Z,9.60
2022-08-20T22:29:34.147Z,10.30
2022-08-20T22:32:01.210Z,9.43
2022-08-20T22:34:33.922Z,7.32
2022-08-20T22:37:01.461Z,9.40
2022-08-20T22:39:28.338Z,8.60
2022-08-20T22:41:55.374Z,6.05
2022-08-20T22:44:22.141Z,8.02
2022-08-20T22:46:53.915Z,9.00
2022-08-20T22:49:27.274Z,7.95
2022-08-20T22:51:54.256Z,9.80
2022-08-20T22:54:24.866Z,9.02
2022-08-20T22:56:53.220Z,11.00
2022-08-20T22:59:22.020Z,6.50
2022-08-20T23:01:49.829Z,10.85
2022-08-20T23:04:30.604Z,7.63
2022-08-20T23:06:58.620Z,7.88
2022-08-20T23:09:26.765Z,10.48
2022-08-20T23:11:53.755Z,9.48
2022-08-20T23:14:21.439Z,11.70
2022-08-20T23:16:56.480Z,9.60
2022-08-20T23:19:24.479Z,9.60
2022-08-20T23:21:52.628Z,8.63
2022-08-20T23:24:19.895Z,5.80
2022-08-20T23:26:53.139Z,6.95
2022-08-20T23:29:22.625Z,8.88
2022-08-20T23:31:54.353Z,7.25
2022-08-20T23:34:21.172Z,8.50
2022-08-20T23:36:48.443Z,8.77
2022-08-20T23:39:15.226Z,8.63
2022-08-20T23:41:45.400Z,10.05
2022-08-20T23:44:26.471Z,8.75
2022-08-20T23:47:00.732Z,10.10
2022-08-20T23:49:29.780Z,9.15
2022-08-20T23:51:57.756Z,9.00
2022-08-20T23:54:25.935Z,8.55
2022-08-20T23:56:56.760Z,8.52
2022-08-20T23:59:24.112Z,9.68
